Time;durP1;ratioP1;P1;durP2;ratioP2;P2;SDS_P1;SDS_P2;PMS_P1;PMS_P2;Temp;Humidity;BMP_temperature;BMP_pressure;BME280_temperature;BME280_humidity;BME280_pressure;Samples;Min_cycle;Max_cycle;Signal;HPM_P1;HPM_P2
2021/06/03 05:02:10;;;;;;;3.85;2.50;;;22.90;83.90;;;;;;5123590;27;20371;-71
2021/06/03 05:04:36;;;;;;;3.63;2.50;;;22.80;85.50;;;;;;5108499;28;20034;-78
2021/06/03 05:07:02;;;;;;;5.40;2.42;;;22.80;85.20;;;;;;5109033;28;20107;-82
2021/06/03 05:09:27;;;;;;;5.53;2.40;;;22.90;85.10;;;;;;5108923;28;20103;-78
2021/06/03 05:11:53;;;;;;;4.88;2.90;;;22.90;85.00;;;;;;5108881;28;20030;-77
2021/06/03 05:14:21;;;;;;;5.63;2.55;;;22.90;85.10;;;;;;5107687;28;20028;-79
2021/06/03 05:16:47;;;;;;;3.75;2.75;;;22.90;85.10;;;;;;5107209;28;20043;-79
2021/06/03 05:19:13;;;;;;;4.22;2.90;;;22.90;85.20;;;;;;5108574;28;20028;-77
2021/06/03 05:21:38;;;;;;;5.13;2.63;;;22.90;85.10;;;;;;5108028;28;20381;-78
2021/06/03 05:24:04;;;;;;;4.50;2.50;;;23.00;85.10;;;;;;5108530;28;20023;-75
2021/06/03 05:26:30;;;;;;;3.38;2.75;;;23.00;85.50;;;;;;5107504;28;20404;-75
2021/06/03 05:28:55;;;;;;;7.57;5.20;;;23.00;85.80;;;;;;5107924;28;20118;-75
2021/06/03 05:31:21;;;;;;;7.60;5.70;;;23.00;88.90;;;;;;5108306;28;20092;-75
2021/06/03 05:33:47;;;;;;;6.97;5.53;;;23.00;89.60;;;;;;5107512;28;20032;-76
2021/06/03 05:36:12;;;;;;;6.25;4.90;;;23.00;89.20;;;;;;5107683;28;20031;-75
2021/06/03 05:38:38;;;;;;;6.03;4.60;;;23.00;88.80;;;;;;5107707;28;20109;-74
2021/06/03 05:41:04;;;;;;;5.07;4.28;;;23.00;88.30;;;;;;5108399;28;20036;-75
2021/06/03 05:43:29;;;;;;;6.05;4.60;;;23.10;87.50;;;;;;5107911;28;20023;-74
2021/06/03 05:45:55;;;;;;;5.53;4.15;;;23.10;89.00;;;;;;5108145;28;20023;-79
2021/06/03 05:48:21;;;;;;;8.98;4.78;;;23.20;88.80;;;;;;5108003;28;20036;-78
2021/06/03 05:50:46;;;;;;;12.45;4.70;;;23.20;89.30;;;;;;5108132;28;20383;-77
2021/06/03 05:53:12;;;;;;;9.57;4.57;;;23.20;88.50;;;;;;5107545;28;20040;-77
2021/06/03 05:55:38;;;;;;;5.97;4.80;;;23.20;88.90;;;;;;5108173;28;20016;-78
2021/06/03 05:58:03;;;;;;;12.10;5.70;;;23.20;89.50;;;;;;5108450;28;20024;-76
2021/06/03 06:00:30;;;;;;;10.15;5.07;;;23.30;90.30;;;;;;5107035;28;20100;-76
2021/06/03 06:08:23;;;;;;;15.57;6.05;;;23.30;90.80;;;;;;5106454;28;20030;-77
2021/06/03 06:10:49;;;;;;;9.82;5.95;;;23.30;90.90;;;;;;5106986;28;20032;-78
2021/06/03 06:13:15;;;;;;;12.93;5.28;;;23.30;90.80;;;;;;5095057;28;22020;-78
2021/06/03 06:15:41;;;;;;;9.82;5.15;;;23.40;90.90;;;;;;5093808;28;20500;-77
2021/06/03 06:18:07;;;;;;;8.02;6.38;;;23.40;90.70;;;;;;5093749;28;20048;-80
2021/06/03 06:20:34;;;;;;;6.38;5.40;;;23.40;91.10;;;;;;5094349;28;20028;-83
2021/06/03 06:23:00;;;;;;;15.13;6.68;;;23.50;91.30;;;;;;5094032;28;20016;-81
2021/06/03 06:25:26;;;;;;;13.13;8.52;;;23.40;91.50;;;;;;5072120;28;20111;-79
2021/06/03 06:27:53;;;;;;;14.90;9.05;;;23.50;91.80;;;;;;5082469;28;20488;-80
2021/06/03 06:30:19;;;;;;;13.55;8.68;;;23.50;91.70;;;;;;5093331;28;20101;-80
2021/06/03 06:32:46;;;;;;;11.50;8.23;;;23.50;91.80;;;;;;5093130;28;20016;-78
2021/06/03 06:35:12;;;;;;;12.90;8.18;;;23.50;91.70;;;;;;5091556;28;20036;-78
2021/06/03 06:37:39;;;;;;;13.57;9.07;;;23.50;92.40;;;;;;5093709;28;20081;-81
2021/06/03 06:40:06;;;;;;;16.83;10.05;;;23.50;92.20;;;;;;5093538;28;20039;-76
2021/06/03 06:42:34;;;;;;;13.55;8.35;;;23.50;92.30;;;;;;5094128;28;20024;-78
2021/06/03 06:45:01;;;;;;;13.98;8.70;;;23.50;92.20;;;;;;5093463;28;20111;-77
2021/06/03 06:47:26;;;;;;;17.20;8.68;;;23.50;92.10;;;;;;5093375;28;20392;-77
2021/06/03 06:49:52;;;;;;;11.10;7.80;;;23.50;92.20;;;;;;5093525;28;20024;-79
2021/06/03 06:52:18;;;;;;;12.45;8.50;;;23.60;92.10;;;;;;5091919;28;20020;-79
2021/06/03 06:54:44;;;;;;;13.80;8.55;;;23.50;92.10;;;;;;5091714;28;20512;-79
2021/06/03 06:57:10;;;;;;;15.10;8.55;;;23.50;92.10;;;;;;5091857;28;20094;-79
2021/06/03 06:59:35;;;;;;;14.80;8.10;;;23.60;91.90;;;;;;5093485;28;20024;-79
2021/06/03 07:02:02;;;;;;;14.40;8.48;;;23.50;91.90;;;;;;5093385;28;20032;-79
2021/06/03 07:04:27;;;;;;;17.92;8.05;;;23.60;91.80;;;;;;5092327;28;20066;-79
2021/06/03 07:06:53;;;;;;;12.07;8.20;;;23.60;91.90;;;;;;5093071;28;20071;-79
2021/06/03 07:09:19;;;;;;;10.13;7.80;;;23.60;91.60;;;;;;5092995;28;20012;-79
2021/06/03 07:11:44;;;;;;;14.50;8.07;;;23.60;91.90;;;;;;5092925;28;20544;-79
2021/06/03 07:14:10;;;;;;;11.52;7.95;;;23.60;91.80;;;;;;5092487;28;20032;-78
2021/06/03 07:16:35;;;;;;;13.18;8.02;;;23.60;91.70;;;;;;5092983;28;20499;-78
2021/06/03 07:19:03;;;;;;;12.02;7.68;;;23.50;91.60;;;;;;5092885;28;20073;-77
2021/06/03 07:21:29;;;;;;;14.68;8.05;;;23.50;92.00;;;;;;5092404;28;20036;-78
2021/06/03 07:23:55;;;;;;;12.25;8.02;;;23.60;91.60;;;;;;5091197;28;20039;-79
2021/06/03 07:26:22;;;;;;;8.65;7.03;;;23.60;91.30;;;;;;5092428;28;20415;-80
2021/06/03 07:28:48;;;;;;;16.75;7.53;;;23.60;91.20;;;;;;5092359;28;20034;-79
2021/06/03 07:31:14;;;;;;;14.10;7.43;;;23.60;91.20;;;;;;5092201;28;20028;-80
2021/06/03 07:33:39;;;;;;;16.95;8.10;;;23.60;91.10;;;;;;5092311;28;20416;-79
2021/06/03 07:36:05;;;;;;;10.70;7.72;;;23.60;91.00;;;;;;5091852;28;20078;-79
2021/06/03 07:38:31;;;;;;;9.77;7.18;;;23.60;91.00;;;;;;5092150;28;20081;-79
2021/06/03 07:40:56;;;;;;;13.68;7.60;;;23.60;91.00;;;;;;5092521;28;20044;-79
2021/06/03 07:43:22;;;;;;;12.75;7.80;;;23.60;90.90;;;;;;5092083;28;20055;-80
2021/06/03 07:45:48;;;;;;;13.25;6.88;;;23.60;90.80;;;;;;5092489;28;20028;-80
2021/06/03 07:48:14;;;;;;;11.43;7.10;;;23.60;90.80;;;;;;5091400;28;20024;-79
2021/06/03 07:50:40;;;;;;;12.95;7.78;;;23.60;90.80;;;;;;5092442;28;20080;-79
2021/06/03 07:53:08;;;;;;;12.13;6.78;;;23.60;90.70;;;;;;5091733;28;20060;-80
2021/06/03 07:55:35;;;;;;;12.63;7.03;;;23.60;90.70;;;;;;5092617;28;20032;-80
2021/06/03 07:58:06;;;;;;;13.48;6.85;;;23.60;90.60;;;;;;5091896;28;20031;-80
2021/06/03 08:00:33;;;;;;;11.27;6.47;;;23.60;90.50;;;;;;5091421;28;20098;-76
2021/06/03 08:02:58;;;;;;;11.80;7.18;;;23.60;90.40;;;;;;5092007;28;20154;-79
2021/06/03 08:05:26;;;;;;;14.20;6.95;;;23.60;90.20;;;;;;5091801;28;20138;-78
2021/06/03 08:07:53;;;;;;;12.75;7.35;;;23.70;90.20;;;;;;5091889;28;20111;-80
2021/06/03 08:10:24;;;;;;;9.45;7.10;;;23.60;90.20;;;;;;5090058;28;20036;-79
2021/06/03 08:12:50;;;;;;;11.27;7.22;;;23.60;90.10;;;;;;5091910;28;20035;-79
2021/06/03 08:15:17;;;;;;;10.32;6.68;;;23.60;90.10;;;;;;5090298;28;20058;-79
2021/06/03 08:17:43;;;;;;;10.32;6.80;;;23.60;90.20;;;;;;5091700;28;20031;-77
2021/06/03 08:20:19;;;;;;;13.35;6.93;;;23.70;90.00;;;;;;5090883;28;20042;-79
2021/06/03 08:22:44;;;;;;;;;;;23.70;90.00;;;;;;5092133;28;20373;-79
2021/06/03 08:25:11;;;;;;;;;;;23.70;89.70;;;;;;5091918;28;19911;-79
2021/06/03 08:27:36;;;;;;;;;;;23.70;89.60;;;;;;5092262;28;19904;-79
2021/06/03 08:30:04;;;;;;;;;;;23.70;89.50;;;;;;5091569;28;19977;-77
2021/06/03 08:32:29;;;;;;;7.57;6.22;;;23.80;89.40;;;;;;5091143;28;19904;-78
2021/06/03 08:34:55;;;;;;;8.65;6.20;;;23.80;89.20;;;;;;5091196;28;20081;-78
2021/06/03 08:37:21;;;;;;;8.05;6.00;;;23.70;89.30;;;;;;5091341;28;20024;-79
2021/06/03 08:39:47;;;;;;;7.82;5.93;;;23.80;89.10;;;;;;5091101;28;20111;-78
2021/06/03 08:42:13;;;;;;;8.40;5.80;;;23.80;89.40;;;;;;5090679;28;20495;-79
2021/06/03 08:44:40;;;;;;;11.02;6.55;;;23.80;89.40;;;;;;5091153;28;20057;-78
2021/06/03 08:47:08;;;;;;;8.82;6.13;;;23.80;90.00;;;;;;5090700;28;20388;-79
2021/06/03 08:49:35;;;;;;;11.73;6.57;;;23.80;89.80;;;;;;5091364;28;20032;-80
2021/06/03 08:52:03;;;;;;;12.60;6.47;;;23.80;89.40;;;;;;5091669;28;20055;-80
2021/06/03 08:54:34;;;;;;;12.73;6.82;;;23.90;89.60;;;;;;5090866;28;20024;-78
2021/06/03 08:57:01;;;;;;;13.35;7.32;;;23.90;89.30;;;;;;5091231;28;20012;-78
2021/06/03 08:59:26;;;;;;;18.92;7.30;;;23.80;89.70;;;;;;5090560;28;20379;-77
2021/06/03 09:01:52;;;;;;;13.30;7.30;;;23.90;89.60;;;;;;5090953;28;20035;-76
2021/06/03 09:04:18;;;;;;;17.48;6.93;;;23.90;90.00;;;;;;5090755;28;20099;-76
2021/06/03 09:06:44;;;;;;;16.80;6.63;;;23.90;90.20;;;;;;5091233;28;20445;-76
2021/06/03 09:09:13;;;;;;;8.82;6.63;;;23.90;90.00;;;;;;5090576;28;20081;-77
2021/06/03 09:11:39;;;;;;;11.55;6.95;;;23.90;89.60;;;;;;5091067;28;20028;-76
2021/06/03 09:14:05;;;;;;;17.70;7.57;;;23.90;90.30;;;;;;5090680;28;20042;-76
2021/06/03 09:16:36;;;;;;;18.73;7.40;;;23.90;90.50;;;;;;5091371;28;20024;-76
2021/06/03 09:19:09;;;;;;;12.68;7.32;;;23.90;90.20;;;;;;5091281;28;20034;-76
2021/06/03 09:21:39;;;;;;;15.13;8.25;;;23.90;90.30;;;;;;5090927;28;20050;-77
2021/06/03 09:24:12;;;;;;;14.70;7.53;;;23.90;90.50;;;;;;5089215;28;20024;-79
2021/06/03 09:26:37;;;;;;;13.73;8.02;;;23.90;90.90;;;;;;5091084;28;20024;-78
2021/06/03 09:29:05;;;;;;;15.35;7.30;;;24.00;90.60;;;;;;5091035;28;20028;-77
2021/06/03 09:31:35;;;;;;;12.55;7.88;;;24.00;90.70;;;;;;5091165;28;20032;-78
2021/06/03 09:34:07;;;;;;;14.02;7.07;;;24.00;90.70;;;;;;5091297;28;20012;-76
2021/06/03 09:36:38;;;;;;;15.35;7.78;;;24.00;90.90;;;;;;5091202;28;20521;-79
2021/06/03 09:39:22;;;;;;;15.45;7.32;;;24.00;90.70;;;;;;5091107;28;20073;-79
2021/06/03 09:41:50;;;;;;;25.15;15.88;;;24.10;90.70;;;;;;5090590;28;20059;-77
2021/06/03 09:44:26;;;;;;;37.58;21.55;;;24.10;90.60;;;;;;5090718;28;20023;-78
2021/06/03 09:46:55;;;;;;;55.70;26.27;;;24.10;90.60;;;;;;5090817;28;20059;-79
2021/06/03 09:49:27;;;;;;;167.55;73.13;;;24.10;90.40;;;;;;5094037;28;20025;-75
2021/06/03 09:51:57;;;;;;;173.50;84.28;;;24.10;90.60;;;;;;5094527;28;20490;-76
2021/06/03 09:54:24;;;;;;;179.82;82.60;;;24.10;90.70;;;;;;5094173;28;20104;-77
2021/06/03 09:56:57;;;;;;;148.68;74.95;;;24.10;90.60;;;;;;5094109;28;20391;-76
2021/06/03 09:59:31;;;;;;;171.50;80.57;;;24.10;90.60;;;;;;5093927;28;20074;-76
2021/06/03 10:01:58;;;;;;;169.88;80.78;;;24.20;90.70;;;;;;5094061;28;20126;-76
2021/06/03 10:04:51;;;;;;;140.10;69.70;;;24.20;90.50;;;;;;5094072;28;20100;-77
2021/06/03 10:07:25;;;;;;;139.75;69.57;;;24.20;90.50;;;;;;5093878;28;20060;-76
2021/06/03 10:09:53;;;;;;;123.25;62.00;;;24.20;90.50;;;;;;5094433;28;20020;-78
2021/06/03 10:12:28;;;;;;;124.50;62.03;;;24.30;90.40;;;;;;5092542;28;20035;-79
2021/06/03 10:15:06;;;;;;;92.60;44.53;;;24.30;90.10;;;;;;5094123;28;20020;-79
2021/06/03 10:17:54;;;;;;;73.18;30.30;;;24.30;88.50;;;;;;5093734;28;20500;-78
2021/06/03 10:20:39;;;;;;;50.95;26.75;;;24.30;87.50;;;;;;5093642;28;20434;-76
2021/06/03 10:35:56;;;;;;;;;;;24.20;85.50;;;;;;5144336;27;20924;-77
2021/06/03 10:38:23;;;;;;;30.83;15.20;;;24.20;85.90;;;;;;5128808;28;19908;-77
2021/06/03 10:40:57;;;;;;;26.63;15.45;;;24.20;86.80;;;;;;5128690;27;20080;-79
2021/06/03 10:43:24;;;;;;;26.87;15.10;;;24.30;86.10;;;;;;5127199;27;20019;-78
2021/06/03 10:45:50;;;;;;;28.17;14.88;;;24.30;85.80;;;;;;5128612;28;20744;-79
2021/06/03 10:48:16;;;;;;;31.13;15.48;;;24.30;85.70;;;;;;5129077;28;20023;-75
2021/06/03 10:50:54;;;;;;;30.92;13.63;;;24.30;85.80;;;;;;5129109;27;20501;-74
2021/06/03 10:53:23;;;;;;;27.55;14.45;;;24.30;85.70;;;;;;5108547;28;20088;-75
2021/06/03 10:55:51;;;;;;;28.13;14.00;;;24.30;85.40;;;;;;5108660;28;20044;-75
2021/06/03 10:58:29;;;;;;;27.35;14.18;;;24.40;85.20;;;;;;5107323;28;20023;-76
2021/06/03 11:01:07;;;;;;;23.50;12.85;;;24.40;85.00;;;;;;5107815;28;20023;-76
2021/06/03 11:03:39;;;;;;;22.80;12.35;;;24.40;84.70;;;;;;5129024;27;20503;-79
2021/06/03 11:06:08;;;;;;;23.23;12.57;;;24.40;84.60;;;;;;5129319;28;20034;-79
2021/06/03 11:08:49;;;;;;;20.48;12.00;;;24.50;84.40;;;;;;5129242;28;20051;-77
2021/06/03 11:11:15;;;;;;;19.75;11.38;;;24.50;84.20;;;;;;5128406;27;20080;-78
2021/06/03 11:13:47;;;;;;;25.52;11.52;;;24.50;84.00;;;;;;5128290;27;20040;-79
2021/06/03 11:16:19;;;;;;;17.33;10.85;;;24.50;83.70;;;;;;5125969;27;20023;-79
2021/06/03 11:18:45;;;;;;;21.60;10.98;;;24.50;83.50;;;;;;5128379;27;20028;-79
2021/06/03 11:21:35;;;;;;;21.10;10.52;;;24.50;83.30;;;;;;5128398;28;20027;-79
2021/06/03 11:24:05;;;;;;;18.00;10.98;;;24.50;83.00;;;;;;5108296;28;20036;-78
2021/06/03 11:26:39;;;;;;;15.82;9.70;;;24.50;82.70;;;;;;5122010;28;20015;-78
2021/06/03 11:29:11;;;;;;;19.77;10.88;;;24.50;82.70;;;;;;5126764;28;20023;-77
2021/06/03 11:31:40;;;;;;;17.27;9.35;;;24.50;82.50;;;;;;5125421;28;20022;-78
2021/06/03 11:34:15;;;;;;;18.35;10.50;;;24.50;82.60;;;;;;5127586;28;20043;-77
2021/06/03 11:36:43;;;;;;;17.30;9.77;;;24.50;82.70;;;;;;5126480;28;20026;-77
2021/06/03 11:39:31;;;;;;;16.13;10.73;;;24.40;82.60;;;;;;5133389;27;20060;-77
2021/06/03 11:42:30;;;;;;;13.80;9.32;;;24.40;82.90;;;;;;5116307;27;20445;-78
2021/06/03 11:45:07;;;;;;;12.50;8.90;;;24.40;82.90;;;;;;5135031;27;20491;-78
2021/06/03 11:47:39;;;;;;;15.40;9.65;;;24.30;82.90;;;;;;5112006;27;20031;-78
2021/06/03 11:50:14;;;;;;;16.23;9.35;;;24.30;82.90;;;;;;5113561;28;20028;-78
2021/06/03 11:53:00;;;;;;;;;;;24.30;83.00;;;;;;5114844;28;20509;-78
2021/06/03 11:55:33;;;;;;;15.68;9.02;;;24.30;83.10;;;;;;5112625;28;19959;-78
2021/06/03 11:58:27;;;;;;;17.48;9.45;;;24.30;83.00;;;;;;5114404;28;20077;-77
2021/06/03 12:01:09;;;;;;;15.13;9.23;;;24.30;83.10;;;;;;5113965;28;20031;-76
2021/06/03 12:03:41;;;;;;;13.88;8.63;;;24.30;83.10;;;;;;5114162;28;20023;-77
2021/06/03 12:06:23;;;;;;;11.55;7.90;;;24.20;83.10;;;;;;5113888;28;20028;-77
2021/06/03 12:08:54;;;;;;;12.57;8.75;;;24.20;83.10;;;;;;5113244;28;20441;-76
2021/06/03 12:11:36;;;;;;;14.10;8.38;;;24.20;83.20;;;;;;5112936;28;20062;-78
2021/06/03 12:14:06;;;;;;;14.15;8.23;;;24.20;83.20;;;;;;5113918;28;20108;-76
2021/06/03 12:16:39;;;;;;;14.20;8.80;;;24.20;83.40;;;;;;5113997;28;20099;-78
2021/06/03 12:19:21;;;;;;;13.45;8.05;;;24.20;83.30;;;;;;5113960;28;20027;-77
2021/06/03 12:21:58;;;;;;;12.60;7.47;;;24.10;83.40;;;;;;5113887;28;20491;-77
2021/06/03 12:24:43;;;;;;;15.43;8.45;;;24.10;83.70;;;;;;5113412;28;20020;-76
2021/06/03 12:27:28;;;;;;;13.50;8.03;;;24.10;83.40;;;;;;5113612;28;20024;-75
2021/06/03 12:30:08;;;;;;;10.50;7.70;;;24.10;83.70;;;;;;5113741;28;20020;-76
2021/06/03 12:32:34;;;;;;;11.10;7.68;;;24.10;83.60;;;;;;5113995;28;20032;-77
2021/06/03 12:35:02;;;;;;;14.43;7.82;;;24.10;83.70;;;;;;5112004;28;20548;-74
2021/06/03 12:37:31;;;;;;;10.60;7.55;;;24.10;83.80;;;;;;5113223;28;20016;-77
2021/06/03 12:39:58;;;;;;;11.25;7.78;;;24.10;83.90;;;;;;5113296;28;20016;-75
2021/06/03 12:42:28;;;;;;;10.48;7.40;;;24.10;83.90;;;;;;5113260;28;20027;-77
2021/06/03 12:44:59;;;;;;;13.23;7.43;;;24.10;84.00;;;;;;5112577;28;20027;-77
2021/06/03 12:47:31;;;;;;;9.27;7.10;;;24.10;84.10;;;;;;5113221;28;20024;-76
2021/06/03 12:50:23;;;;;;;11.90;7.30;;;24.10;84.00;;;;;;5113355;28;20026;-73
2021/06/03 12:52:49;;;;;;;11.13;7.25;;;24.10;84.10;;;;;;5106465;28;20038;-74
2021/06/03 12:55:19;;;;;;;11.27;7.25;;;24.10;84.20;;;;;;5111704;28;20039;-75
2021/06/03 12:57:45;;;;;;;9.13;6.55;;;24.10;84.10;;;;;;5112155;28;20514;-76
2021/06/03 13:00:32;;;;;;;8.85;6.65;;;24.10;84.60;;;;;;5111568;28;20413;-77
2021/06/03 13:03:14;;;;;;;9.15;7.20;;;24.10;85.20;;;;;;5112689;28;20015;-76
2021/06/03 13:05:43;;;;;;;9.57;6.72;;;24.10;85.40;;;;;;5111393;28;20031;-78
2021/06/03 13:08:09;;;;;;;8.95;7.47;;;24.10;85.50;;;;;;5112736;28;20064;-78
2021/06/03 13:10:35;;;;;;;10.30;6.82;;;24.10;85.10;;;;;;5112819;28;20023;-78
2021/06/03 13:13:07;;;;;;;9.05;6.45;;;24.10;85.10;;;;;;5112713;28;20027;-77
2021/06/03 13:15:37;;;;;;;8.40;5.82;;;24.10;85.40;;;;;;5112849;28;20198;-78
2021/06/03 13:18:04;;;;;;;10.45;6.57;;;24.10;85.80;;;;;;5113100;28;20023;-73
2021/06/03 13:20:49;;;;;;;9.68;7.15;;;24.00;85.80;;;;;;5113019;28;20081;-78
2021/06/03 13:23:15;;;;;;;8.75;6.65;;;24.00;85.70;;;;;;5112152;28;20030;-78
2021/06/03 13:25:46;;;;;;;11.48;7.07;;;24.10;85.50;;;;;;5112317;28;20055;-77
2021/06/03 13:28:21;;;;;;;9.85;6.43;;;24.10;85.30;;;;;;5112423;28;20062;-77
2021/06/03 13:30:51;;;;;;;8.80;6.10;;;24.00;85.10;;;;;;5112341;28;20057;-78
2021/06/03 13:33:20;;;;;;;8.48;6.25;;;24.10;85.80;;;;;;5111796;28;20103;-78
2021/06/03 13:35:57;;;;;;;9.00;6.72;;;24.10;85.80;;;;;;5112013;28;20065;-78
2021/06/03 13:38:24;;;;;;;10.02;7.57;;;24.00;85.80;;;;;;5111832;28;20110;-77
2021/06/03 13:40:50;;;;;;;8.27;6.63;;;24.00;86.00;;;;;;5110633;28;20027;-77
2021/06/03 13:43:21;;;;;;;7.97;6.30;;;24.00;85.50;;;;;;5112184;28;20020;-77
2021/06/03 13:45:49;;;;;;;7.38;6.40;;;24.10;86.30;;;;;;5112207;28;20403;-76
2021/06/03 13:48:21;;;;;;;10.15;6.90;;;24.10;86.10;;;;;;5111813;28;20563;-77
2021/06/03 13:51:00;;;;;;;9.68;6.90;;;24.10;85.80;;;;;;5111739;28;20056;-78
2021/06/03 13:53:36;;;;;;;8.35;6.35;;;24.10;86.00;;;;;;5111538;28;20031;-77
2021/06/03 13:56:12;;;;;;;7.72;6.00;;;24.10;86.20;;;;;;5111430;28;20494;-73
2021/06/03 13:58:53;;;;;;;7.35;6.03;;;24.10;86.20;;;;;;5111098;28;20024;-78
2021/06/03 14:01:23;;;;;;;8.40;5.90;;;24.00;86.00;;;;;;5111532;28;20035;-79
2021/06/03 14:04:09;;;;;;;7.60;5.93;;;24.00;86.40;;;;;;5111971;28;20031;-79
2021/06/03 14:06:36;;;;;;;;;;;24.00;86.00;;;;;;5111947;28;20491;-76
2021/06/03 14:09:20;;;;;;;6.47;5.80;;;24.10;86.20;;;;;;5109989;28;19903;-77
2021/06/03 14:15:01;;;;;;;6.88;5.40;;;24.00;86.10;;;;;;5109740;28;20479;-76
2021/06/03 14:17:28;;;;;;;7.13;5.70;;;24.00;86.30;;;;;;5109400;28;20106;-76
2021/06/03 14:19:54;;;;;;;7.47;6.03;;;24.00;86.20;;;;;;5109988;28;20394;-78
2021/06/03 14:22:24;;;;;;;9.73;5.75;;;24.00;86.60;;;;;;5110670;28;20028;-77
2021/06/03 14:25:00;;;;;;;8.90;5.95;;;24.10;87.00;;;;;;5111695;28;20023;-76
2021/06/03 14:27:34;;;;;;;8.63;6.03;;;24.10;86.10;;;;;;5111063;28;20023;-75
2021/06/03 14:30:20;;;;;;;9.15;6.25;;;24.10;86.00;;;;;;5111542;28;20035;-77
2021/06/03 14:32:46;;;;;;;;;;;24.10;86.10;;;;;;5111348;28;20028;-78
2021/06/03 14:35:33;;;;;;;6.93;5.50;;;24.10;86.00;;;;;;5110570;28;19922;-76
2021/06/03 14:37:59;;;;;;;7.85;6.18;;;24.10;85.90;;;;;;5111231;28;20024;-78
2021/06/03 14:40:30;;;;;;;9.90;6.35;;;24.10;86.00;;;;;;5111016;28;20361;-71
2021/06/03 14:43:09;;;;;;;9.02;5.68;;;24.10;86.00;;;;;;5110847;28;20553;-77
2021/06/03 14:45:37;;;;;;;8.48;5.80;;;24.10;86.20;;;;;;5111773;28;20031;-76
2021/06/03 14:48:04;;;;;;;7.95;5.72;;;24.10;86.20;;;;;;5111510;28;20020;-77
2021/06/03 14:50:34;;;;;;;10.18;5.90;;;24.10;86.30;;;;;;5110819;28;20031;-76
2021/06/03 14:53:02;;;;;;;7.68;5.90;;;24.10;86.40;;;;;;5110962;28;20020;-74
2021/06/03 14:55:31;;;;;;;6.80;5.72;;;24.10;86.40;;;;;;5110739;28;20395;-77
2021/06/03 14:57:59;;;;;;;6.95;5.95;;;24.10;86.60;;;;;;5111304;28;20030;-78
2021/06/03 15:00:29;;;;;;;8.18;5.97;;;24.10;86.70;;;;;;5111184;28;20884;-75
2021/06/03 15:02:55;;;;;;;10.50;6.03;;;24.10;86.70;;;;;;5110983;28;20024;-77
2021/06/03 15:05:22;;;;;;;11.75;6.35;;;24.10;86.80;;;;;;5110894;28;20043;-78
2021/06/03 15:07:48;;;;;;;7.70;5.68;;;24.10;86.70;;;;;;5110007;28;20020;-77
2021/06/03 15:10:15;;;;;;;7.28;5.68;;;24.10;86.60;;;;;;5110915;28;20035;-78
2021/06/03 15:12:42;;;;;;;6.55;5.68;;;24.10;86.60;;;;;;5110775;28;20510;-78
2021/06/03 15:15:10;;;;;;;6.95;5.43;;;24.10;86.80;;;;;;5110744;28;20032;-77
2021/06/03 15:17:37;;;;;;;6.53;5.47;;;24.10;86.70;;;;;;5111261;28;20164;-77
2021/06/03 15:20:09;;;;;;;8.25;5.53;;;24.10;86.60;;;;;;5111215;28;20553;-77
2021/06/03 15:22:35;;;;;;;10.35;6.47;;;24.20;86.80;;;;;;5114172;28;20020;-74
2021/06/03 15:25:01;;;;;;;8.75;6.03;;;24.10;86.70;;;;;;5115189;28;20038;-76
2021/06/03 15:27:26;;;;;;;10.57;6.10;;;24.10;86.50;;;;;;5113356;28;20361;-75
2021/06/03 15:29:52;;;;;;;9.30;6.00;;;24.20;87.00;;;;;;5114958;28;20031;-75
2021/06/03 15:32:18;;;;;;;8.30;5.63;;;24.10;86.80;;;;;;5114143;28;20020;-77
2021/06/03 15:34:44;;;;;;;7.68;5.55;;;24.10;87.00;;;;;;5113409;28;20074;-75
2021/06/03 15:37:11;;;;;;;7.35;5.45;;;24.10;86.80;;;;;;5114569;28;20480;-77
2021/06/03 15:39:38;;;;;;;10.00;6.38;;;24.10;86.90;;;;;;5114824;28;20019;-77
2021/06/03 15:42:06;;;;;;;7.72;6.03;;;24.10;86.70;;;;;;5114535;28;20024;-78
2021/06/03 15:44:32;;;;;;;9.77;5.90;;;24.20;86.90;;;;;;5114858;28;20391;-77
2021/06/03 15:47:01;;;;;;;6.15;5.40;;;24.10;86.90;;;;;;5114558;28;20035;-77
2021/06/03 15:49:31;;;;;;;7.03;5.68;;;24.10;87.10;;;;;;5114092;28;20019;-77
2021/06/03 15:52:04;;;;;;;11.07;6.57;;;24.10;87.40;;;;;;5114481;28;20055;-76
2021/06/03 15:54:32;;;;;;;7.43;5.50;;;24.20;88.00;;;;;;5114526;28;20031;-77
2021/06/03 15:56:58;;;;;;;10.27;5.25;;;24.20;88.40;;;;;;5114220;28;20441;-78
2021/06/03 15:59:23;;;;;;;7.38;5.55;;;24.20;88.50;;;;;;5113635;28;20076;-78
2021/06/03 16:01:49;;;;;;;11.43;5.80;;;24.20;87.90;;;;;;5114124;28;20031;-78
2021/06/03 16:04:15;;;;;;;7.68;5.68;;;24.20;87.70;;;;;;5113738;28;20016;-78
2021/06/03 16:06:40;;;;;;;6.88;5.32;;;24.20;87.70;;;;;;5114340;28;20039;-77
2021/06/03 16:09:06;;;;;;;7.82;5.20;;;24.20;87.70;;;;;;5113567;28;20026;-78
2021/06/03 16:11:32;;;;;;;9.70;5.80;;;24.20;87.70;;;;;;5114261;28;20471;-77
2021/06/03 16:13:57;;;;;;;7.00;5.32;;;24.20;87.60;;;;;;5113862;28;20032;-77
2021/06/03 16:16:23;;;;;;;9.95;5.30;;;24.20;87.50;;;;;;5111785;28;20084;-77
2021/06/03 16:18:49;;;;;;;7.97;5.50;;;24.20;87.50;;;;;;5112459;28;20510;-78
2021/06/03 16:21:14;;;;;;;7.85;5.55;;;24.20;87.40;;;;;;5113508;28;20395;-78
2021/06/03 16:23:40;;;;;;;6.07;5.00;;;24.20;87.30;;;;;;5113803;28;20055;-77
2021/06/03 16:26:05;;;;;;;9.32;4.85;;;24.20;87.00;;;;;;5113650;28;20073;-77
2021/06/03 16:28:31;;;;;;;8.07;5.15;;;24.20;86.90;;;;;;5113348;28;20073;-76
2021/06/03 16:30:57;;;;;;;7.60;6.03;;;24.20;86.70;;;;;;5113091;28;20027;-75
2021/06/03 16:33:24;;;;;;;12.05;5.63;;;24.20;87.00;;;;;;5112732;28;20058;-74
2021/06/03 16:35:50;;;;;;;7.97;5.00;;;24.20;87.10;;;;;;5113362;28;20028;-76
2021/06/03 16:38:18;;;;;;;14.05;5.97;;;24.20;87.30;;;;;;5113289;28;20030;-77
2021/06/03 16:40:46;;;;;;;9.00;5.70;;;24.20;87.30;;;;;;5099429;28;20092;-77
2021/06/03 16:43:17;;;;;;;8.80;4.90;;;24.20;87.30;;;;;;5113162;28;20069;-76
2021/06/03 16:45:46;;;;;;;6.95;5.22;;;24.20;87.20;;;;;;5113525;28;20474;-79
2021/06/03 16:48:11;;;;;;;8.93;5.28;;;24.20;87.80;;;;;;5113155;28;20030;-77
2021/06/03 16:50:38;;;;;;;6.75;4.35;;;24.20;87.50;;;;;;5112929;28;20019;-78
2021/06/03 16:53:04;;;;;;;6.20;4.78;;;24.20;87.40;;;;;;5113252;27;20437;-76
2021/06/03 16:55:32;;;;;;;7.75;4.10;;;24.20;87.80;;;;;;5112829;28;20027;-75
2021/06/03 16:57:59;;;;;;;8.00;5.50;;;24.20;87.10;;;;;;5112756;27;20106;-76
2021/06/03 17:00:35;;;;;;;6.13;4.90;;;24.20;86.80;;;;;;5111690;28;20398;-76
2021/06/03 17:03:01;;;;;;;10.20;5.63;;;24.20;86.80;;;;;;5113416;28;20047;-77
2021/06/03 17:05:27;;;;;;;11.10;5.53;;;24.20;86.70;;;;;;5112825;28;20019;-77
2021/06/03 17:07:54;;;;;;;8.63;5.70;;;24.20;86.90;;;;;;5112745;28;20491;-79
2021/06/03 17:10:21;;;;;;;9.43;4.63;;;24.20;87.00;;;;;;5112521;28;20019;-76
2021/06/03 17:12:47;;;;;;;8.75;4.88;;;24.20;87.30;;;;;;5112373;28;20028;-76
2021/06/03 17:15:15;;;;;;;8.20;5.00;;;24.20;87.70;;;;;;5112415;28;20051;-79
2021/06/03 17:17:41;;;;;;;8.90;5.00;;;24.20;87.90;;;;;;5112845;28;20045;-75
2021/06/03 17:20:11;;;;;;;9.70;5.38;;;24.20;88.20;;;;;;5111098;28;20028;-77
2021/06/03 17:22:37;;;;;;;8.23;5.63;;;24.30;88.60;;;;;;5112138;28;20068;-77
2021/06/03 17:25:05;;;;;;;8.02;5.05;;;24.20;89.10;;;;;;5112985;28;20483;-77
2021/06/03 17:27:31;;;;;;;8.18;4.75;;;24.20;89.50;;;;;;5112631;28;20486;-77
2021/06/03 17:29:57;;;;;;;8.13;4.88;;;24.30;90.00;;;;;;5112595;28;20030;-76
2021/06/03 17:32:22;;;;;;;6.65;4.70;;;24.30;89.30;;;;;;5112007;28;20024;-76
2021/06/03 17:34:48;;;;;;;6.03;5.32;;;24.30;89.80;;;;;;5112112;28;20123;-76
2021/06/03 17:37:14;;;;;;;7.43;5.80;;;24.30;89.60;;;;;;5112031;28;20026;-77
2021/06/03 17:39:39;;;;;;;7.65;5.10;;;24.30;89.40;;;;;;5110989;28;20063;-77
2021/06/03 17:42:05;;;;;;;7.22;5.15;;;24.30;89.20;;;;;;5111656;28;20027;-78
2021/06/03 17:44:31;;;;;;;8.13;5.25;;;24.30;89.30;;;;;;5112134;28;20140;-77
2021/06/03 17:46:57;;;;;;;10.07;5.28;;;24.30;90.00;;;;;;5112267;28;20029;-77
2021/06/03 17:49:22;;;;;;;7.88;5.13;;;24.30;89.70;;;;;;5112135;28;20024;-75
2021/06/03 17:51:48;;;;;;;9.80;5.00;;;24.30;89.60;;;;;;5111760;28;20480;-76
2021/06/03 17:54:14;;;;;;;8.57;4.50;;;24.30;89.60;;;;;;5111591;28;20024;-74
2021/06/03 17:56:40;;;;;;;14.95;5.95;;;24.30;89.90;;;;;;5112080;28;20039;-75
2021/06/03 17:59:06;;;;;;;8.60;5.55;;;24.30;89.90;;;;;;5112050;28;20024;-79
2021/06/03 18:01:32;;;;;;;6.35;5.10;;;24.30;89.70;;;;;;5112335;28;20100;-79
2021/06/03 18:03:58;;;;;;;8.55;5.15;;;24.30;89.60;;;;;;5109885;28;20099;-80
2021/06/03 18:06:25;;;;;;;7.95;4.93;;;24.30;89.60;;;;;;5110377;28;20879;-79
2021/06/03 18:08:51;;;;;;;5.53;4.80;;;24.30;89.50;;;;;;5111954;28;20051;-79
2021/06/03 18:11:17;;;;;;;14.73;9.68;;;24.30;89.30;;;;;;5109916;28;20110;-79
2021/06/03 18:13:43;;;;;;;6.93;5.65;;;24.30;89.40;;;;;;5111773;28;20074;-79
2021/06/03 18:16:08;;;;;;;15.68;7.18;;;24.30;89.10;;;;;;5111697;28;20069;-80